Time;durP1;ratioP1;P1;durP2;ratioP2;P2;SDS_P1;SDS_P2;PMS_P1;PMS_P2;Temp;Humidity;BMP_temperature;BMP_pressure;BME280_temperature;BME280_humidity;BME280_pressure;Samples;Min_cycle;Max_cycle;Signal;HPM_P1;HPM_P2
2020/12/25 00:00:52;;;;;;;5.80;2.90;;;;;;;7.11;58.83;101532.59;6293419;28;20240;-78
2020/12/25 00:04:12;;;;;;;3.00;2.70;;;;;;;7.11;59.24;101535.19;6292422;28;20230;-78
2020/12/25 00:07:33;;;;;;;6.80;5.00;;;;;;;7.32;58.81;101536.38;6291806;28;20956;-78
2020/12/25 00:10:53;;;;;;;5.90;3.70;;;;;;;7.33;58.70;101530.34;6275049;28;20493;-78
2020/12/25 00:14:15;;;;;;;3.50;3.20;;;;;;;7.19;58.94;101536.22;6270607;28;20223;-78
2020/12/25 00:17:35;;;;;;;3.83;3.37;;;;;;;7.10;58.91;101539.50;6277945;28;20728;-78
2020/12/25 00:20:56;;;;;;;5.47;3.93;;;;;;;7.26;58.95;101544.94;6288222;28;20262;-77
2020/12/25 00:24:16;;;;;;;4.63;2.83;;;;;;;7.22;58.74;101538.81;6280029;28;20231;-78
2020/12/25 00:27:36;;;;;;;5.27;3.33;;;;;;;7.14;59.01;101544.75;6266213;28;20235;-79
2020/12/25 00:30:58;;;;;;;6.60;3.50;;;;;;;7.21;58.68;101555.22;6282934;28;20592;-79
2020/12/25 00:34:18;;;;;;;5.73;3.03;;;;;;;7.24;58.64;101547.50;6294185;28;20265;-78
2020/12/25 00:37:39;;;;;;;4.27;3.73;;;;;;;7.16;58.92;101561.19;6270191;28;20236;-78
2020/12/25 00:40:59;;;;;;;6.83;4.37;;;;;;;7.27;58.86;101567.41;6289723;28;20227;-78
2020/12/25 00:44:20;;;;;;;8.50;4.03;;;;;;;7.32;58.53;101575.25;6293341;28;20239;-78
2020/12/25 00:47:42;;;;;;;5.53;2.87;;;;;;;7.16;58.63;101569.81;6285838;28;20224;-78
2020/12/25 00:51:03;;;;;;;3.33;2.73;;;;;;;7.11;58.54;101568.84;6262675;28;20232;-78
2020/12/25 00:54:23;;;;;;;5.87;3.53;;;;;;;7.11;58.88;101576.63;6268350;28;20560;-78
2020/12/25 00:57:51;;;;;;;5.33;2.83;;;;;;;7.25;58.56;101577.75;6288446;28;20235;-79
2020/12/25 01:01:15;;;;;;;4.10;2.47;;;;;;;7.16;58.67;101577.59;6271399;28;20504;-78
2020/12/25 01:04:36;;;;;;;4.23;3.80;;;;;;;7.17;58.88;101581.03;6284763;28;20331;-79
2020/12/25 01:07:57;;;;;;;5.47;2.90;;;;;;;7.07;58.79;101577.41;6270431;28;20236;-80
2020/12/25 01:11:18;;;;;;;4.57;3.03;;;;;;;7.02;58.49;101579.94;6268730;28;20487;-78
2020/12/25 01:14:38;;;;;;;5.53;2.87;;;;;;;6.83;59.10;101581.31;6267932;28;20597;-79
2020/12/25 01:17:58;;;;;;;3.77;3.27;;;;;;;7.01;59.08;101590.28;6273982;28;20232;-79
2020/12/25 01:21:20;;;;;;;4.93;3.10;;;;;;;7.04;58.76;101601.56;6258075;28;20228;-78
2020/12/25 01:24:40;;;;;;;5.87;3.47;;;;;;;6.99;58.54;101605.78;6269488;28;20243;-78
2020/12/25 01:28:01;;;;;;;5.70;3.07;;;;;;;6.76;59.03;101615.69;6276805;28;20228;-77
2020/12/25 01:31:21;;;;;;;6.73;3.20;;;;;;;6.57;59.59;101622.25;6276945;28;20234;-78
2020/12/25 01:34:42;;;;;;;10.07;3.60;;;;;;;6.66;59.39;101635.34;6290822;28;20218;-77
2020/12/25 01:38:03;;;;;;;5.53;2.67;;;;;;;6.52;59.75;101629.03;6279863;28;20223;-78
2020/12/25 01:41:24;;;;;;;5.23;3.17;;;;;;;6.61;59.60;101616.28;6276197;28;20232;-76
2020/12/25 01:44:44;;;;;;;7.03;3.23;;;;;;;6.57;59.85;101629.13;6281114;28;20231;-77
2020/12/25 01:48:05;;;;;;;5.30;2.57;;;;;;;6.65;59.33;101635.31;6283329;28;20235;-77
2020/12/25 01:51:26;;;;;;;4.30;3.37;;;;;;;6.77;59.12;101633.00;6284499;28;20254;-79
2020/12/25 01:54:48;;;;;;;6.67;3.03;;;;;;;6.60;59.11;101629.19;6291947;28;20559;-78
2020/12/25 01:58:09;;;;;;;7.33;3.57;;;;;;;6.37;59.07;101633.88;6279417;28;20228;-78
2020/12/25 02:01:29;;;;;;;7.43;4.10;;;;;;;6.46;59.06;101624.59;6277175;28;20235;-78
2020/12/25 02:04:49;;;;;;;7.43;3.87;;;;;;;6.50;59.24;101639.34;6280485;28;20236;-78
2020/12/25 02:08:14;;;;;;;3.77;2.43;;;;;;;6.10;59.35;101641.06;6269115;28;20224;-77
2020/12/25 02:11:37;;;;;;;4.20;2.77;;;;;;;6.15;59.44;101646.34;6263831;28;20220;-78
2020/12/25 02:14:58;;;;;;;9.17;2.97;;;;;;;6.14;59.59;101648.91;6278874;28;20248;-78
2020/12/25 02:18:19;;;;;;;4.47;2.77;;;;;;;6.17;59.32;101651.56;6266515;28;20323;-78
2020/12/25 02:21:40;;;;;;;6.37;2.77;;;;;;;6.25;59.07;101662.97;6251110;28;20228;-79
2020/12/25 02:25:00;;;;;;;4.43;2.60;;;;;;;6.23;59.21;101665.50;6242630;28;20630;-80
2020/12/25 02:28:21;;;;;;;5.77;2.93;;;;;;;6.27;59.11;101662.13;6262659;28;20232;-78
2020/12/25 02:31:44;;;;;;;7.17;3.67;;;;;;;6.26;58.69;101675.03;6250482;28;20236;-78
2020/12/25 02:35:05;;;;;;;6.93;3.20;;;;;;;6.20;58.60;101677.50;6244813;28;20408;-75
2020/12/25 02:38:27;;;;;;;3.70;2.90;;;;;;;5.93;59.26;101681.13;6253619;28;20270;-77
2020/12/25 02:41:47;;;;;;;5.90;3.47;;;;;;;6.03;59.17;101672.81;6246932;28;20610;-77
2020/12/25 02:45:08;;;;;;;5.37;2.90;;;;;;;6.02;59.03;101667.59;6263160;28;20228;-78
2020/12/25 02:48:28;;;;;;;5.37;2.90;;;;;;;6.16;58.62;101673.09;6242099;28;20240;-78
2020/12/25 02:51:49;;;;;;;6.30;2.93;;;;;;;5.89;58.91;101680.22;6246775;28;20240;-78
2020/12/25 02:55:12;;;;;;;5.70;2.90;;;;;;;5.90;59.21;101675.91;6264958;28;20216;-78
2020/12/25 02:58:32;;;;;;;5.30;2.50;;;;;;;5.85;59.06;101688.72;6247367;28;20621;-77
2020/12/25 03:01:54;;;;;;;4.13;2.40;;;;;;;5.69;59.07;101697.81;6254156;28;20244;-77
2020/12/25 03:05:14;;;;;;;4.60;2.10;;;;;;;5.76;58.89;101693.69;6253657;28;20765;-78
2020/12/25 03:08:35;;;;;;;5.83;3.43;;;;;;;5.73;58.83;101697.03;6243080;28;20240;-78
2020/12/25 03:11:56;;;;;;;7.30;2.63;;;;;;;5.75;58.73;101696.22;6258396;28;20232;-79
2020/12/25 03:15:17;;;;;;;10.30;3.33;;;;;;;5.73;58.38;101694.47;6261972;28;20231;-77
2020/12/25 03:18:37;;;;;;;5.13;2.33;;;;;;;5.64;58.91;101707.16;6290942;28;20234;-77
2020/12/25 03:21:58;;;;;;;5.27;2.47;;;;;;;5.67;58.50;101703.78;6260294;28;20227;-77
2020/12/25 03:25:18;;;;;;;3.27;1.87;;;;;;;5.52;58.83;101699.09;6245593;28;20228;-77
2020/12/25 03:28:40;;;;;;;4.93;2.90;;;;;;;5.45;58.59;101702.38;6262741;28;20240;-78
2020/12/25 03:32:00;;;;;;;7.97;3.00;;;;;;;5.55;58.81;101708.66;6260739;28;20229;-77
2020/12/25 03:35:21;;;;;;;3.53;2.53;;;;;;;5.52;58.76;101709.41;6247576;28;20256;-78
2020/12/25 03:38:41;;;;;;;4.77;2.70;;;;;;;5.57;58.34;101712.16;6257815;28;21055;-79
2020/12/25 03:42:04;;;;;;;3.80;1.93;;;;;;;5.46;58.35;101723.06;6257069;28;20228;-78
2020/12/25 03:45:26;;;;;;;7.33;3.40;;;;;;;5.29;58.51;101721.72;6258189;28;20322;-78
2020/12/25 03:48:47;;;;;;;9.37;3.23;;;;;;;5.25;58.59;101725.97;6270378;28;20235;-78
2020/12/25 03:52:07;;;;;;;3.50;1.73;;;;;;;5.16;58.39;101723.13;6273377;28;20659;-80
2020/12/25 03:55:27;;;;;;;6.50;2.80;;;;;;;5.23;59.00;101717.28;6266035;28;20235;-79
2020/12/25 03:58:48;;;;;;;5.67;2.37;;;;;;;5.47;57.96;101726.53;6264094;28;20228;-79
2020/12/25 04:02:09;;;;;;;12.23;5.07;;;;;;;5.35;58.37;101726.19;6265557;28;20232;-79
2020/12/25 04:05:30;;;;;;;9.97;2.70;;;;;;;5.01;58.15;101726.13;6245027;28;20228;-79
2020/12/25 04:08:51;;;;;;;9.70;2.57;;;;;;;5.07;58.16;101725.44;6270741;28;20227;-79
2020/12/25 04:12:11;;;;;;;5.77;2.40;;;;;;;5.04;59.00;101723.66;6274216;28;20516;-79
2020/12/25 04:15:32;;;;;;;7.73;2.60;;;;;;;5.16;58.54;101727.38;6283605;28;20497;-79
2020/12/25 04:18:53;;;;;;;3.80;2.47;;;;;;;5.33;57.93;101723.56;6289976;28;20232;-80
2020/12/25 04:22:14;;;;;;;2.80;2.13;;;;;;;5.32;57.82;101735.59;6273559;28;20220;-79
2020/12/25 04:25:34;;;;;;;6.43;1.80;;;;;;;5.32;57.92;101733.03;6284758;28;20226;-79
2020/12/25 04:28:54;;;;;;;3.57;2.40;;;;;;;5.42;57.75;101741.03;6278546;28;20600;-79
2020/12/25 04:32:15;;;;;;;7.80;2.60;;;;;;;5.38;57.51;101740.06;6286196;28;20652;-79
2020/12/25 04:35:36;;;;;;;4.47;2.03;;;;;;;5.22;57.63;101745.66;6292482;28;20227;-79
2020/12/25 04:38:57;;;;;;;10.57;3.27;;;;;;;5.23;57.46;101748.25;6280124;28;20219;-79
2020/12/25 04:42:17;;;;;;;4.73;1.93;;;;;;;5.09;57.20;101745.28;6277409;28;20231;-79
2020/12/25 04:45:37;;;;;;;3.77;1.63;;;;;;;5.17;57.73;101742.94;6269324;28;20247;-79
2020/12/25 04:48:58;;;;;;;7.07;2.13;;;;;;;5.17;57.48;101747.22;6291174;28;20250;-79
2020/12/25 04:52:20;;;;;;;6.70;2.20;;;;;;;5.02;57.82;101752.81;6269324;28;20239;-79
2020/12/25 04:55:40;;;;;;;5.90;2.20;;;;;;;5.05;57.63;101763.25;6269646;28;20328;-78
2020/12/25 04:59:01;;;;;;;5.33;1.70;;;;;;;5.17;57.51;101763.59;6277085;28;20322;-78
2020/12/25 05:02:21;;;;;;;5.57;2.63;;;;;;;5.07;57.34;101766.75;6286124;28;20298;-78
2020/12/25 05:05:42;;;;;;;6.70;2.93;;;;;;;5.09;57.76;101765.94;6273089;28;20498;-78
2020/12/25 05:09:03;;;;;;;5.50;2.50;;;;;;;5.15;57.00;101764.38;6283668;28;20247;-79
2020/12/25 05:12:27;;;;;;;5.87;2.43;;;;;;;5.29;57.05;101761.38;6269624;28;20228;-79
2020/12/25 05:15:48;;;;;;;9.30;2.37;;;;;;;5.13;57.04;101767.78;6273525;28;20600;-79
2020/12/25 05:19:10;;;;;;;5.07;2.33;;;;;;;5.17;56.87;101770.47;6269393;28;20239;-79
2020/12/25 05:22:31;;;;;;;3.90;2.83;;;;;;;5.22;57.32;101774.06;6273377;28;20240;-79
2020/12/25 05:25:58;;;;;;;8.23;2.77;;;;;;;5.03;57.07;101785.56;6283556;28;20604;-79
2020/12/25 05:29:21;;;;;;;4.47;2.37;;;;;;;4.96;56.90;101793.97;6268057;28;20236;-78
2020/12/25 05:32:44;;;;;;;3.97;2.90;;;;;;;5.08;57.17;101789.19;6278444;28;20224;-79
2020/12/25 05:36:06;;;;;;;3.43;2.30;;;;;;;5.08;56.70;101787.47;6268416;28;20497;-79
2020/12/25 05:39:27;;;;;;;5.53;2.27;;;;;;;5.14;56.88;101779.00;6268789;28;20550;-79
2020/12/25 05:42:50;;;;;;;4.43;2.30;;;;;;;4.98;57.06;101788.00;6267688;28;20589;-78
2020/12/25 05:46:13;;;;;;;6.03;2.90;;;;;;;5.02;56.68;101791.53;6273770;28;20505;-79
2020/12/25 05:49:33;;;;;;;2.90;1.80;;;;;;;4.95;56.95;101797.38;6292720;28;20235;-78
2020/12/25 05:52:54;;;;;;;7.03;3.30;;;;;;;5.09;57.00;101796.06;6292366;28;20270;-79
2020/12/25 05:56:15;;;;;;;5.03;2.10;;;;;;;4.90;56.72;101805.88;6287716;28;20231;-78
2020/12/25 05:59:36;;;;;;;7.43;2.03;;;;;;;4.94;57.12;101809.38;6291833;28;20274;-77
2020/12/25 06:02:57;;;;;;;6.72;2.75;;;;;;;4.95;57.20;101820.63;6283798;28;20700;-79
2020/12/25 06:06:23;;;;;;;4.57;2.13;;;;;;;4.93;56.79;101826.59;6274862;28;20223;-78
2020/12/25 06:09:45;;;;;;;4.27;2.10;;;;;;;4.99;57.13;101818.16;6271847;28;20609;-78
2020/12/25 06:13:12;;;;;;;4.57;1.60;;;;;;;5.08;56.10;101825.31;6267557;28;20252;-77
2020/12/25 06:16:38;;;;;;;5.47;2.93;;;;;;;4.98;56.12;101837.03;6280433;28;20239;-78
2020/12/25 06:20:03;;;;;;;3.10;2.07;;;;;;;5.02;56.06;101840.59;6290623;28;20735;-80
2020/12/25 06:23:25;;;;;;;3.23;1.80;;;;;;;4.99;56.60;101846.56;6291883;28;20223;-79
2020/12/25 06:26:50;;;;;;;5.07;1.80;;;;;;;5.09;56.37;101845.13;6267415;28;20212;-78
2020/12/25 06:30:11;;;;;;;5.57;2.30;;;;;;;5.09;56.13;101848.59;6280458;28;20238;-78
2020/12/25 06:33:32;;;;;;;2.63;1.80;;;;;;;5.02;56.50;101845.78;6290997;28;20230;-78
2020/12/25 06:36:53;;;;;;;3.27;1.87;;;;;;;5.00;56.23;101855.16;6292233;28;20223;-78
2020/12/25 06:40:23;;;;;;;2.87;1.80;;;;;;;5.05;56.60;101861.38;6284887;28;20227;-78
2020/12/25 06:43:44;;;;;;;7.13;2.40;;;;;;;4.87;56.62;101859.97;6279913;28;20230;-79
2020/12/25 06:47:05;;;;;;;5.40;2.13;;;;;;;4.89;56.26;101866.06;6276910;28;20232;-79
2020/12/25 06:50:27;;;;;;;3.83;2.27;;;;;;;4.99;56.26;101869.78;6266790;28;20543;-79
2020/12/25 06:53:47;;;;;;;4.97;2.23;;;;;;;5.07;56.39;101872.63;6267101;28;20239;-79
2020/12/25 06:57:10;;;;;;;4.77;2.57;;;;;;;4.92;55.84;101871.31;6272247;28;20219;-79
2020/12/25 07:00:31;;;;;;;2.75;2.22;;;;;;;4.87;56.25;101862.56;6269878;28;20772;-79
2020/12/25 07:03:51;;;;;;;3.83;3.20;;;;;;;4.93;56.45;101862.75;6289491;28;20223;-78
2020/12/25 07:07:14;;;;;;;4.10;2.73;;;;;;;4.92;56.07;101868.75;6271454;28;20227;-78
2020/12/25 07:10:36;;;;;;;6.77;3.70;;;;;;;4.84;55.86;101872.78;6267664;28;20659;-78
2020/12/25 07:13:56;;;;;;;6.20;3.40;;;;;;;4.80;56.19;101877.78;6267770;28;20227;-78
2020/12/25 07:17:17;;;;;;;4.77;1.93;;;;;;;4.88;55.71;101889.22;6284346;28;20257;-78
2020/12/25 07:20:38;;;;;;;6.10;2.80;;;;;;;4.92;55.86;101897.13;6289387;28;20339;-78
2020/12/25 07:23:59;;;;;;;5.77;2.13;;;;;;;4.90;56.27;101898.81;6265953;28;20219;-78
2020/12/25 07:27:20;;;;;;;3.87;2.13;;;;;;;4.91;55.70;101910.00;6282710;28;20314;-78
2020/12/25 07:30:41;;;;;;;6.20;1.97;;;;;;;4.78;55.89;101907.84;6274354;28;20223;-78
2020/12/25 07:34:01;;;;;;;4.50;1.40;;;;;;;4.77;55.79;101903.50;6266244;28;20228;-78
2020/12/25 07:37:21;;;;;;;3.70;1.67;;;;;;;4.87;55.63;101916.75;6267269;28;20220;-79
2020/12/25 07:40:44;;;;;;;2.57;1.80;;;;;;;4.90;55.86;101928.88;6274636;28;20235;-78
2020/12/25 07:44:04;;;;;;;3.27;1.93;;;;;;;4.89;55.72;101933.16;6266559;28;20227;-79
2020/12/25 07:47:25;;;;;;;3.83;1.70;;;;;;;4.68;56.17;101942.81;6278091;28;20236;-80
2020/12/25 07:50:47;;;;;;;7.67;1.90;;;;;;;4.61;56.35;101946.00;6265639;28;20517;-80
2020/12/25 07:54:08;;;;;;;4.30;1.50;;;;;;;4.71;56.24;101946.38;6270494;28;20220;-79
2020/12/25 07:57:30;;;;;;;6.70;2.73;;;;;;;4.74;55.81;101951.59;6272857;28;20235;-80
2020/12/25 08:00:50;;;;;;;2.50;1.50;;;;;;;4.67;55.54;101953.94;6277316;28;20330;-78
2020/12/25 08:04:12;;;;;;;2.73;1.53;;;;;;;4.61;55.64;101951.16;6288402;28;20228;-79
2020/12/25 08:07:32;;;;;;;4.70;2.40;;;;;;;4.67;55.77;101952.25;6278341;28;20248;-79
2020/12/25 08:10:54;;;;;;;4.17;1.97;;;;;;;4.87;55.34;101954.59;6269367;28;20236;-78
2020/12/25 08:14:16;;;;;;;6.10;2.33;;;;;;;4.99;55.26;101959.28;6273688;28;20224;-79
2020/12/25 08:17:37;;;;;;;8.90;1.90;;;;;;;4.93;54.28;101967.72;6271101;28;20605;-78
2020/12/25 08:21:00;;;;;;;9.07;3.00;;;;;;;4.99;54.72;101977.38;6269439;28;20276;-78
2020/12/25 08:24:20;;;;;;;3.07;1.43;;;;;;;5.03;55.06;101971.47;6283071;28;20607;-78
2020/12/25 08:27:41;;;;;;;3.90;1.47;;;;;;;5.13;54.76;101973.50;6271308;28;20957;-79
2020/12/25 08:31:14;;;;;;;4.87;2.10;;;;;;;5.04;54.44;101973.19;6269307;28;20239;-77
2020/12/25 08:34:34;;;;;;;4.87;1.83;;;;;;;5.22;54.81;101978.97;6270310;28;20306;-79
2020/12/25 08:38:01;;;;;;;10.03;2.60;;;;;;;5.70;53.23;101978.72;6276943;28;20223;-78
2020/12/25 08:41:26;;;;;;;5.17;1.50;;;;;;;6.31;51.08;101983.88;6273193;28;20267;-78
2020/12/25 08:44:55;;;;;;;4.77;1.63;;;;;;;8.90;46.64;101981.75;6269504;28;20255;-79
2020/12/25 08:48:17;;;;;;;4.20;1.87;;;;;;;12.51;40.64;101971.13;6269270;28;20269;-78
2020/12/25 08:51:38;;;;;;;3.50;1.70;;;;;;;13.17;38.67;101977.22;6278232;28;20231;-78
2020/12/25 08:55:00;;;;;;;1.97;1.50;;;;;;;14.47;35.86;101976.75;6268771;28;20227;-79
2020/12/25 08:58:22;;;;;;;4.93;1.83;;;;;;;15.33;33.73;101989.16;6270416;28;20242;-79
2020/12/25 09:01:42;;;;;;;4.47;1.40;;;;;;;16.18;31.91;101986.41;6268588;28;20243;-78
2020/12/25 09:05:04;;;;;;;2.17;1.30;;;;;;;16.78;29.95;101982.03;6291734;28;20234;-79
2020/12/25 09:08:24;;;;;;;5.10;1.70;;;;;;;17.02;27.78;101983.38;6291933;28;20227;-78
2020/12/25 09:11:44;;;;;;;1.42;1.13;;;;;;;16.97;29.55;101986.13;6291003;28;20228;-78
2020/12/25 09:15:05;;;;;;;3.83;1.42;;;;;;;16.85;29.29;101979.31;6294358;28;20227;-80
2020/12/25 09:18:26;;;;;;;2.20;1.05;;;;;;;16.73;28.53;101982.09;6270148;28;21013;-78
2020/12/25 09:21:47;;;;;;;4.90;1.88;;;;;;;16.21;30.60;101988.16;6274724;28;20235;-79
2020/12/25 09:25:08;;;;;;;2.33;1.20;;;;;;;16.42;29.56;101994.84;6269142;28;20314;-79
2020/12/25 09:28:28;;;;;;;2.92;1.50;;;;;;;16.45;29.95;101995.66;6268866;28;20243;-78
2020/12/25 09:31:49;;;;;;;2.75;1.33;;;;;;;15.92;30.81;102003.41;6276868;28;20227;-78
2020/12/25 09:35:09;;;;;;;2.42;1.40;;;;;;;15.23;31.88;102011.13;6291144;28;20669;-77
2020/12/25 09:38:31;;;;;;;3.13;1.60;;;;;;;15.06;30.87;102004.28;6269120;28;20247;-76
2020/12/25 09:41:51;;;;;;;3.03;1.42;;;;;;;14.41;33.74;102005.63;6291994;28;20250;-76
2020/12/25 09:45:11;;;;;;;4.75;1.67;;;;;;;14.20;34.28;102017.94;6292976;28;20532;-76
2020/12/25 09:48:32;;;;;;;6.90;1.85;;;;;;;13.98;33.96;102023.28;6270918;28;20489;-76
2020/12/25 09:51:52;;;;;;;8.90;7.95;;;;;;;13.88;34.63;102024.22;6286305;28;20222;-76
2020/12/25 09:55:14;;;;;;;6.43;3.58;;;;;;;13.44;33.78;102013.84;6262484;28;20244;-77
2020/12/25 09:58:35;;;;;;;6.82;2.38;;;;;;;13.57;34.89;102013.81;6262295;28;20228;-77
2020/12/25 10:01:56;;;;;;;5.35;2.63;;;;;;;13.31;35.80;102015.59;6252501;28;20232;-77
2020/12/25 10:05:16;;;;;;;2.55;1.40;;;;;;;13.39;34.28;102016.47;6244558;28;20361;-77
2020/12/25 10:08:37;;;;;;;3.58;1.45;;;;;;;13.43;34.86;102018.19;6243224;28;20240;-77
2020/12/25 10:11:58;;;;;;;4.82;2.35;;;;;;;13.41;35.21;102021.69;6248320;28;20592;-77
2020/12/25 10:15:19;;;;;;;1.77;1.13;;;;;;;13.48;35.98;102029.53;6254546;28;20231;-77
2020/12/25 10:18:40;;;;;;;2.95;1.20;;;;;;;13.46;34.65;102026.06;6247886;28;20220;-77
2020/12/25 10:22:00;;;;;;;2.90;1.33;;;;;;;13.38;34.50;102031.28;6242172;28;20606;-77
2020/12/25 10:25:20;;;;;;;4.18;1.65;;;;;;;13.43;35.57;102023.44;6242625;28;20806;-77
2020/12/25 10:28:42;;;;;;;3.00;1.85;;;;;;;12.95;35.89;102023.44;6242503;28;20229;-78
2020/12/25 10:32:02;;;;;;;3.00;1.48;;;;;;;12.68;35.06;102029.53;6267216;28;20236;-79
2020/12/25 10:35:22;;;;;;;2.53;1.40;;;;;;;12.73;37.05;102030.38;6289218;28;20318;-77
2020/12/25 10:38:43;;;;;;;2.88;1.63;;;;;;;13.03;36.72;102033.00;6273575;28;20314;-78
2020/12/25 10:42:07;;;;;;;29.23;19.77;;;;;;;13.11;35.93;102028.69;6267355;28;20945;-78
2020/12/25 10:45:28;;;;;;;4.40;2.88;;;;;;;13.19;36.34;102032.16;6266693;28;20236;-78
2020/12/25 10:48:48;;;;;;;3.63;1.70;;;;;;;12.88;34.75;102036.53;6283933;28;20254;-79
2020/12/25 10:52:09;;;;;;;3.40;1.58;;;;;;;13.02;35.00;102033.91;6289742;28;20231;-78
2020/12/25 10:55:29;;;;;;;3.67;1.20;;;;;;;12.78;36.04;102030.41;6266769;28;20636;-77
2020/12/25 10:58:50;;;;;;;5.50;1.60;;;;;;;12.87;35.94;102029.53;6269387;28;20235;-79
2020/12/25 11:02:12;;;;;;;2.10;1.48;;;;;;;13.03;36.39;102030.41;6266603;28;20228;-78
2020/12/25 11:05:32;;;;;;;2.03;1.60;;;;;;;13.08;34.55;102031.28;6277391;28;20238;-79
2020/12/25 11:08:53;;;;;;;3.20;1.50;;;;;;;12.81;36.25;102035.63;6271402;28;20227;-78
2020/12/25 11:12:13;;;;;;;2.37;1.60;;;;;;;12.96;35.79;102037.38;6285642;28;21011;-78
2020/12/25 11:15:33;;;;;;;2.30;1.30;;;;;;;12.99;34.69;102032.16;6267693;28;20252;-79
2020/12/25 11:18:57;;;;;;;3.30;1.90;;;;;;;13.02;35.72;102029.53;6273010;28;20581;-78
2020/12/25 11:22:17;;;;;;;4.90;1.50;;;;;;;12.79;35.34;102027.81;6275129;28;20236;-79
2020/12/25 11:25:38;;;;;;;3.40;1.77;;;;;;;12.71;35.68;102031.25;6273704;28;20231;-79
2020/12/25 11:29:01;;;;;;;3.43;1.90;;;;;;;12.76;34.93;102027.78;6283632;28;20244;-78
2020/12/25 11:32:21;;;;;;;3.57;1.83;;;;;;;12.77;35.34;102019.06;6267045;28;20220;-78
2020/12/25 11:35:42;;;;;;;2.27;1.83;;;;;;;12.78;35.31;102025.19;6287491;28;20371;-78
2020/12/25 11:39:05;;;;;;;3.20;1.63;;;;;;;12.84;35.50;102024.31;6281741;28;20223;-79
2020/12/25 11:42:25;;;;;;;3.90;1.53;;;;;;;13.08;35.95;102024.31;6284888;28;20247;-79
2020/12/25 11:45:45;;;;;;;2.43;1.33;;;;;;;12.83;35.44;102033.00;6293048;28;20298;-80
2020/12/25 11:49:07;;;;;;;3.17;1.40;;;;;;;12.93;35.27;102029.53;6287397;28;20228;-79
2020/12/25 11:52:31;;;;;;;3.33;1.47;;;;;;;13.17;34.91;102026.91;6286339;28;20247;-80
2020/12/25 11:55:52;;;;;;;6.63;1.93;;;;;;;13.02;34.23;102024.31;6253084;28;20350;-80
2020/12/25 11:59:13;;;;;;;3.43;1.67;;;;;;;13.02;34.71;102021.69;6280368;28;20235;-81
2020/12/25 12:02:33;;;;;;;3.63;1.70;;;;;;;13.11;33.79;102034.78;6293609;28;20231;-81
2020/12/25 12:05:54;;;;;;;4.33;1.63;;;;;;;13.26;34.28;102030.41;6271197;28;20664;-81
2020/12/25 12:09:15;;;;;;;4.63;1.50;;;;;;;13.20;33.66;102016.47;6275855;28;20223;-80
2020/12/25 12:12:35;;;;;;;2.50;1.40;;;;;;;13.24;34.40;102024.28;6282034;28;20314;-81
2020/12/25 12:15:56;;;;;;;4.57;1.20;;;;;;;13.39;34.03;102025.16;6292482;28;20223;-80
2020/12/25 12:19:17;;;;;;;2.57;1.50;;;;;;;13.78;33.58;102025.09;6295352;28;20227;-80
2020/12/25 12:22:37;;;;;;;3.37;2.07;;;;;;;13.29;34.02;102022.56;6292868;28;20227;-78
2020/12/25 12:25:58;;;;;;;3.80;1.63;;;;;;;13.46;33.38;102023.44;6284670;28;20628;-80
2020/12/25 12:29:18;;;;;;;2.17;1.90;;;;;;;13.56;32.90;102026.91;6284705;28;20252;-80
2020/12/25 12:32:39;;;;;;;3.53;1.90;;;;;;;13.62;34.00;102026.03;6290658;28;20227;-80
2020/12/25 12:35:59;;;;;;;4.20;1.60;;;;;;;13.18;33.42;102023.44;6286759;28;20219;-81
2020/12/25 12:39:19;;;;;;;4.83;2.93;;;;;;;13.07;33.84;102025.19;6270474;28;20228;-79
2020/12/25 12:42:41;;;;;;;4.27;2.20;;;;;;;13.17;34.23;102029.53;6270405;28;20274;-79
2020/12/25 12:46:01;;;;;;;3.40;2.13;;;;;;;12.72;33.36;102027.78;6273707;28;20228;-80
2020/12/25 12:49:22;;;;;;;4.23;2.10;;;;;;;12.67;34.74;102035.59;6280119;28;20228;-81
2020/12/25 12:52:42;;;;;;;3.87;2.57;;;;;;;12.69;34.57;102040.84;6287549;28;20219;-80
2020/12/25 12:56:03;;;;;;;10.23;5.47;;;;;;;12.93;34.66;102039.97;6278778;28;20231;-79
2020/12/25 12:59:24;;;;;;;3.63;1.83;;;;;;;11.95;34.89;102046.69;6292626;28;20235;-80
2020/12/25 13:02:44;;;;;;;5.53;4.20;;;;;;;11.70;35.47;102045.66;6288518;28;20644;-80
2020/12/25 13:06:04;;;;;;;10.93;9.93;;;;;;;11.90;35.98;102047.53;6270098;28;20228;-80
2020/12/25 13:09:25;;;;;;;13.20;12.00;;;;;;;12.11;35.56;102046.75;6280336;28;20324;-79
2020/12/25 13:12:45;;;;;;;4.30;2.63;;;;;;;11.95;36.24;102046.69;6269386;28;20239;-79
2020/12/25 13:16:06;;;;;;;1.90;1.50;;;;;;;11.54;36.34;102049.91;6271403;28;20512;-78
2020/12/25 13:19:27;;;;;;;1.97;1.50;;;;;;;11.50;36.65;102053.38;6278780;28;20556;-79
2020/12/25 13:22:47;;;;;;;2.50;1.30;;;;;;;11.29;35.80;102043.66;6278124;28;20243;-79
2020/12/25 13:26:07;;;;;;;4.63;1.93;;;;;;;11.16;36.47;102047.88;6288836;28;20275;-78
2020/12/25 13:29:28;;;;;;;3.13;1.70;;;;;;;10.82;37.42;102047.59;6293367;28;20608;-79
2020/12/25 13:32:49;;;;;;;3.03;1.20;;;;;;;10.70;37.85;102033.56;6290348;28;20226;-79
2020/12/25 13:36:09;;;;;;;3.60;1.60;;;;;;;10.58;38.15;102031.72;6284476;28;20259;-79
2020/12/25 13:39:29;;;;;;;11.57;6.33;;;;;;;10.44;38.72;102040.25;6286824;28;20304;-80
2020/12/25 13:42:50;;;;;;;8.77;4.87;;;;;;;10.27;38.80;102026.13;6267612;28;20235;-79
2020/12/25 13:46:11;;;;;;;3.17;1.70;;;;;;;9.93;38.68;102043.09;6278450;28;20219;-78
2020/12/25 13:49:33;;;;;;;4.57;2.03;;;;;;;10.11;39.41;102045.03;6288186;28;20239;-80
2020/12/25 13:52:53;;;;;;;4.30;2.13;;;;;;;9.71;39.09;102040.16;6292015;28;20239;-80
2020/12/25 13:56:14;;;;;;;3.23;1.63;;;;;;;9.40;39.89;102050.16;6273112;28;20612;-79
2020/12/25 13:59:35;;;;;;;3.93;1.60;;;;;;;9.20;39.70;102052.41;6289299;28;20304;-77
2020/12/25 14:02:55;;;;;;;4.33;1.70;;;;;;;9.16;40.02;102042.81;6284101;28;20501;-77
2020/12/25 14:06:17;;;;;;;2.83;1.37;;;;;;;9.36;40.60;102050.06;6268517;28;20227;-79
2020/12/25 14:09:38;;;;;;;3.67;1.73;;;;;;;9.24;40.60;102043.81;6292173;28;20230;-80
2020/12/25 14:12:58;;;;;;;2.23;1.67;;;;;;;9.29;40.54;102024.84;6291608;28;20235;-80
2020/12/25 14:16:18;;;;;;;3.50;1.60;;;;;;;9.16;40.01;102036.75;6270693;28;20302;-79
2020/12/25 14:19:39;;;;;;;6.63;1.23;;;;;;;8.97;39.65;102028.63;6279021;28;20296;-78
2020/12/25 14:23:00;;;;;;;2.53;1.80;;;;;;;8.75;40.18;102016.16;6279798;28;20514;-81
2020/12/25 14:26:21;;;;;;;3.83;2.63;;;;;;;8.77;41.32;102020.50;6290697;28;20227;-79
2020/12/25 14:29:41;;;;;;;4.60;2.23;;;;;;;8.76;40.91;102018.78;6290927;28;20219;-80
2020/12/25 14:33:03;;;;;;;2.77;1.93;;;;;;;8.81;41.38;102018.84;6271140;28;20232;-80
2020/12/25 14:36:23;;;;;;;3.33;1.60;;;;;;;8.78;41.17;102019.69;6291719;28;20235;-80
2020/12/25 14:39:45;;;;;;;3.67;1.23;;;;;;;8.78;41.71;102022.28;6286172;28;20231;-79
2020/12/25 14:43:06;;;;;;;2.30;1.60;;;;;;;8.67;41.05;102023.78;6292476;28;20322;-79
2020/12/25 14:46:26;;;;;;;3.60;1.73;;;;;;;8.60;41.90;102024.53;6276465;28;20500;-80
2020/12/25 14:49:47;;;;;;;3.27;1.60;;;;;;;8.70;42.05;102030.75;6273677;28;20227;-79
2020/12/25 14:53:07;;;;;;;2.57;2.13;;;;;;;8.59;41.47;102030.59;6291421;28;20234;-80
2020/12/25 14:56:28;;;;;;;5.13;2.13;;;;;;;8.51;42.17;102042.53;6289363;28;20231;-79
2020/12/25 14:59:49;;;;;;;3.57;1.77;;;;;;;8.38;42.40;102050.06;6266467;28;20261;-79
2020/12/25 15:03:09;;;;;;;4.25;2.97;;;;;;;8.13;43.33;102056.47;6288402;28;20792;-78
2020/12/25 15:06:29;;;;;;;5.73;2.80;;;;;;;8.02;43.03;102065.72;6292125;28;20538;-79
2020/12/25 15:09:50;;;;;;;3.07;2.27;;;;;;;8.11;43.40;102062.47;6286176;28;20625;-79
2020/12/25 15:13:11;;;;;;;4.37;2.27;;;;;;;8.00;43.15;102070.88;6281576;28;20645;-78
2020/12/25 15:16:31;;;;;;;3.53;2.07;;;;;;;8.05;43.50;102073.59;6284092;28;20231;-79
2020/12/25 15:19:51;;;;;;;3.57;2.13;;;;;;;7.96;43.26;102074.25;6260098;28;20243;-79
2020/12/25 15:23:12;;;;;;;4.63;2.07;;;;;;;7.89;43.95;102077.59;6271272;28;20568;-78
2020/12/25 15:26:32;;;;;;;2.57;2.20;;;;;;;7.89;43.68;102077.59;6272407;28;20239;-79
2020/12/25 15:29:54;;;;;;;3.13;1.73;;;;;;;7.74;44.01;102088.47;6286904;28;20998;-78
2020/12/25 15:33:14;;;;;;;3.07;2.30;;;;;;;7.66;43.92;102101.25;6276196;28;20227;-78
2020/12/25 15:36:34;;;;;;;3.37;1.90;;;;;;;7.78;44.25;102099.81;6271646;28;20224;-79
2020/12/25 15:39:55;;;;;;;5.63;2.73;;;;;;;7.74;43.93;102103.16;6284655;28;20231;-79
2020/12/25 15:43:16;;;;;;;2.50;2.30;;;;;;;7.82;43.96;102099.03;6271590;28;20236;-79